Trade Navigator — PCYA — position and weather

sailwx.info

Track history (hours):
 
Tides and Currents Weather Stations Pressure Air Temp Water Temp Dewpoint Dewpoint Depression Visibility Wind Speed Wind Dir Waves Ship Positions

Trade Navigator

Last reported at 2017-Sep-20 20:57 UTC. Time now 2017-Sep-20 23:40 UTC.
Position N 53°32' E 005°18'.

Length 118 m; draft 7 m.

Type: Cargo ship. MMSI: 244650331.

Date/timePositionNaut miles runAvg speedWind from/ knotsBaromVisibWave heightAir tempDewpointWater temp
2017-Sep-20 20:57N 53°32' E 005°18'613.9
2017-Sep-20 20:30N 53°30' E 005°09'714.4
2017-Sep-20 20:01N 53°27' E 004°58'714.1
2017-Sep-20 19:31N 53°24' E 004°47'1513.6
2017-Sep-20 18:25N 53°12' E 004°33'614.2
2017-Sep-20 18:00N 53°07' E 004°28'713.9
2017-Sep-20 17:30N 53°01' E 004°22'1214.0
2017-Sep-20 16:39N 52°50' E 004°12'213.9
2017-Sep-20 16:29N 52°48' E 004°10'814.0
2017-Sep-20 15:56N 52°43' E 004°02'714.1
2017-Sep-20 15:27N 52°38' E 003°54'1114.2
2017-Sep-20 14:40N 52°30' E 003°42'7013.2
2017-Sep-20 09:21N 51°37' E 002°26'411.1
2017-Sep-20 09:01N 51°34' E 002°22'510.8
2017-Sep-20 08:30N 51°30' E 002°17'510.5
2017-Sep-20 08:01N 51°26' E 002°13'510.6
2017-Sep-20 07:30N 51°21' E 002°09'510.6
2017-Sep-20 07:00N 51°16' E 002°05'510.1
2017-Sep-20 06:30N 51°12' E 001°60'510.6
2017-Sep-20 06:00N 51°09' E 001°53'510.5
2017-Sep-20 05:30N 51°06' E 001°46'510.6
2017-Sep-20 05:00N 51°02' E 001°41'510.9
2017-Sep-20 04:30N 50°58' E 001°35'611.5
2017-Sep-20 04:00N 50°53' E 001°29'1012.2
2017-Sep-20 03:09N 50°44' E 001°22'5212.2
2017-Sep-19 22:53N 50°21' E 000°09'1013.6
2017-Sep-19 22:09N 50°19' W 000°06'2615.0
2017-Sep-19 20:26N 50°11' W 000°45'716.1
2017-Sep-19 20:00N 50°10' W 000°55'816.2
2017-Sep-19 19:31N 50°07' W 001°08'816.4
2017-Sep-19 19:00N 50°05' W 001°20'816.4
2017-Sep-19 18:30N 50°03' W 001°32'816.1
2017-Sep-19 18:00N 50°01' W 001°44'815.6
2017-Sep-19 17:30N 49°59' W 001°56'814.9
2017-Sep-19 16:56N 49°56' W 002°08'2412.9
2017-Sep-19 15:03N 49°50' W 002°45'111.2
2017-Sep-19 14:58N 49°49' W 002°46'510.9
2017-Sep-19 14:29N 49°48' W 002°54'810.5
2017-Sep-19 13:43N 49°44' W 003°05'310.3
2017-Sep-19 13:29N 49°43' W 003°08'510.3
2017-Sep-19 12:58N 49°40' W 003°15'510.2
2017-Sep-19 12:30N 49°38' W 003°22'610.2
2017-Sep-19 11:53N 49°35' W 003°30'410.1
2017-Sep-19 11:30N 49°33' W 003°36'1910.1
2017-Sep-19 09:37N 49°24' W 004°01'110.3
2017-Sep-19 09:30N 49°23' W 004°03'4511.2
2017-Sep-19 05:29N 49°02' W 005°03'712.5
2017-Sep-19 04:58N 48°58' W 005°11'712.9
2017-Sep-19 04:27N 48°54' W 005°19'612.9
2017-Sep-19 04:00N 48°50' W 005°26'  
2017-Sep-16 22:47N 39°33' W 009°50'310.4
2017-Sep-16 22:30N 39°30' W 009°50'510.4
2017-Sep-16 21:59N 39°25' W 009°51'510.2
2017-Sep-16 21:30N 39°20' W 009°51'510.2
2017-Sep-16 21:00N 39°15' W 009°51'510.5
2017-Sep-16 20:30N 39°09' W 009°51'510.5
2017-Sep-16 20:00N 39°04' W 009°51'510.4
2017-Sep-16 19:31N 38°59' W 009°51'510.3
2017-Sep-16 19:00N 38°54' W 009°51'5 9.7
2017-Sep-16 18:30N 38°49' W 009°51'510.0
2017-Sep-16 18:00N 38°44' W 009°51'5 9.7
2017-Sep-16 17:31N 38°39' W 009°51'5 9.5
2017-Sep-16 17:00N 38°34' W 009°52'5 9.4
2017-Sep-16 16:30N 38°30' W 009°52'5 9.1
2017-Sep-16 16:00N 38°25' W 009°52'5 9.6
2017-Sep-16 15:31N 38°20' W 009°52'5 9.6
2017-Sep-16 15:01N 38°16' W 009°52'5 9.7
2017-Sep-16 14:31N 38°11' W 009°52'510.0
2017-Sep-16 14:00N 38°06' W 009°52'5 9.8
2017-Sep-16 13:31N 38°01' W 009°52'249 9.3
2017-Sep-15 10:50N 33°52' W 009°59'3 9.7
2017-Sep-15 10:29N 33°49' W 009°59'1110.0
2017-Sep-15 09:23N 33°38' W 009°60'410.1
2017-Sep-15 09:00N 33°34' W 009°60'710.2
2017-Sep-15 08:21N 33°28' W 009°60'810.5
2017-Sep-15 07:37N 33°20' W 010°00'410.5
2017-Sep-15 07:13N 33°16' W 010°00'210.3
2017-Sep-15 07:00N 33°14' W 010°00'5010.6
2017-Sep-15 02:18N 32°23' W 010°01'310.8
2017-Sep-15 02:00N 32°20' W 010°02'1110.7
2017-Sep-15 00:56N 32°09' W 010°02'510.9
2017-Sep-15 00:30N 32°04' W 010°02'510.7
2017-Sep-15 00:00N 31°59' W 010°02'610.7
2017-Sep-14 23:29N 31°53' W 010°02'1110.6
2017-Sep-14 22:26N 31°42' W 010°03'510.7
2017-Sep-14 21:56N 31°37' W 010°03'510.2
2017-Sep-14 21:29N 31°32' W 010°03'510.5
2017-Sep-14 21:01N 31°27' W 010°03'510.1
2017-Sep-14 20:31N 31°22' W 010°03'1110.2
2017-Sep-14 19:28N 31°12' W 010°03'510.0
2017-Sep-14 19:00N 31°07' W 010°03'5 9.4
2017-Sep-14 18:30N 31°02' W 010°04'5 9.2
2017-Sep-14 18:00N 30°58' W 010°03'8 9.4
2017-Sep-14 17:07N 30°49' W 010°01'1 9.5
2017-Sep-14 17:00N 30°48' W 010°01'510.3
2017-Sep-14 16:30N 30°43' W 010°00'11 9.7
2017-Sep-14 15:20N 30°33' W 009°54'310.8
2017-Sep-14 15:00N 30°31' W 009°51'510.9
2017-Sep-14 14:31N 30°28' W 009°45'6 0.3
2017-Sep-13 15:48N 30°26' W 009°39'97 2.5
2017-Sep-12 00:05N 29°28' W 011°09'112.9
2017-Sep-12 00:00N 29°27' W 011°10'18511.8
2017-Sep-11 08:17N 27°30' W 013°54'  
Track history (hours):
 
Tides and Currents Weather Stations Pressure Air Temp Water Temp Dewpoint Dewpoint Depression Visibility Wind Speed Wind Dir Waves Ship Positions

Trade Navigator

Last reported at 2017-Sep-20 20:57 UTC. Time now 2017-Sep-20 23:40 UTC.
Position N 53°32' E 005°18'.

Length 118 m; draft 7 m.

Type: Cargo ship. MMSI: 244650331.

Date/timePositionNaut miles runAvg speedWind from/ knotsBaromVisibWave heightAir tempDewpointWater temp
2017-Sep-20 20:57N 53°32' E 005°18'613.9
2017-Sep-20 20:30N 53°30' E 005°09'714.4
2017-Sep-20 20:01N 53°27' E 004°58'714.1
2017-Sep-20 19:31N 53°24' E 004°47'1513.6
2017-Sep-20 18:25N 53°12' E 004°33'614.2
2017-Sep-20 18:00N 53°07' E 004°28'713.9
2017-Sep-20 17:30N 53°01' E 004°22'1214.0
2017-Sep-20 16:39N 52°50' E 004°12'213.9
2017-Sep-20 16:29N 52°48' E 004°10'814.0
2017-Sep-20 15:56N 52°43' E 004°02'714.1
2017-Sep-20 15:27N 52°38' E 003°54'1114.2
2017-Sep-20 14:40N 52°30' E 003°42'7013.2
2017-Sep-20 09:21N 51°37' E 002°26'411.1
2017-Sep-20 09:01N 51°34' E 002°22'510.8
2017-Sep-20 08:30N 51°30' E 002°17'510.5
2017-Sep-20 08:01N 51°26' E 002°13'510.6
2017-Sep-20 07:30N 51°21' E 002°09'510.6
2017-Sep-20 07:00N 51°16' E 002°05'510.1
2017-Sep-20 06:30N 51°12' E 001°60'510.6
2017-Sep-20 06:00N 51°09' E 001°53'510.5
2017-Sep-20 05:30N 51°06' E 001°46'510.6
2017-Sep-20 05:00N 51°02' E 001°41'510.9
2017-Sep-20 04:30N 50°58' E 001°35'611.5
2017-Sep-20 04:00N 50°53' E 001°29'1012.2
2017-Sep-20 03:09N 50°44' E 001°22'5212.2
2017-Sep-19 22:53N 50°21' E 000°09'1013.6
2017-Sep-19 22:09N 50°19' W 000°06'2615.0
2017-Sep-19 20:26N 50°11' W 000°45'716.1
2017-Sep-19 20:00N 50°10' W 000°55'816.2
2017-Sep-19 19:31N 50°07' W 001°08'816.4
2017-Sep-19 19:00N 50°05' W 001°20'816.4
2017-Sep-19 18:30N 50°03' W 001°32'816.1
2017-Sep-19 18:00N 50°01' W 001°44'815.6
2017-Sep-19 17:30N 49°59' W 001°56'814.9
2017-Sep-19 16:56N 49°56' W 002°08'2412.9
2017-Sep-19 15:03N 49°50' W 002°45'111.2
2017-Sep-19 14:58N 49°49' W 002°46'510.9
2017-Sep-19 14:29N 49°48' W 002°54'810.5
2017-Sep-19 13:43N 49°44' W 003°05'310.3
2017-Sep-19 13:29N 49°43' W 003°08'510.3
2017-Sep-19 12:58N 49°40' W 003°15'510.2
2017-Sep-19 12:30N 49°38' W 003°22'610.2
2017-Sep-19 11:53N 49°35' W 003°30'410.1
2017-Sep-19 11:30N 49°33' W 003°36'1910.1
2017-Sep-19 09:37N 49°24' W 004°01'110.3
2017-Sep-19 09:30N 49°23' W 004°03'4511.2
2017-Sep-19 05:29N 49°02' W 005°03'712.5
2017-Sep-19 04:58N 48°58' W 005°11'712.9
2017-Sep-19 04:27N 48°54' W 005°19'612.9
2017-Sep-19 04:00N 48°50' W 005°26'  
2017-Sep-16 22:47N 39°33' W 009°50'310.4
2017-Sep-16 22:30N 39°30' W 009°50'510.4
2017-Sep-16 21:59N 39°25' W 009°51'510.2
2017-Sep-16 21:30N 39°20' W 009°51'510.2
2017-Sep-16 21:00N 39°15' W 009°51'510.5
2017-Sep-16 20:30N 39°09' W 009°51'510.5
2017-Sep-16 20:00N 39°04' W 009°51'510.4
2017-Sep-16 19:31N 38°59' W 009°51'510.3
2017-Sep-16 19:00N 38°54' W 009°51'5 9.7
2017-Sep-16 18:30N 38°49' W 009°51'510.0
2017-Sep-16 18:00N 38°44' W 009°51'5 9.7
2017-Sep-16 17:31N 38°39' W 009°51'5 9.5
2017-Sep-16 17:00N 38°34' W 009°52'5 9.4
2017-Sep-16 16:30N 38°30' W 009°52'5 9.1
2017-Sep-16 16:00N 38°25' W 009°52'5 9.6
2017-Sep-16 15:31N 38°20' W 009°52'5 9.6
2017-Sep-16 15:01N 38°16' W 009°52'5 9.7
2017-Sep-16 14:31N 38°11' W 009°52'510.0
2017-Sep-16 14:00N 38°06' W 009°52'5 9.8
2017-Sep-16 13:31N 38°01' W 009°52'249 9.3
2017-Sep-15 10:50N 33°52' W 009°59'3 9.7
2017-Sep-15 10:29N 33°49' W 009°59'1110.0
2017-Sep-15 09:23N 33°38' W 009°60'410.1
2017-Sep-15 09:00N 33°34' W 009°60'710.2
2017-Sep-15 08:21N 33°28' W 009°60'810.5
2017-Sep-15 07:37N 33°20' W 010°00'410.5
2017-Sep-15 07:13N 33°16' W 010°00'210.3
2017-Sep-15 07:00N 33°14' W 010°00'5010.6
2017-Sep-15 02:18N 32°23' W 010°01'310.8
2017-Sep-15 02:00N 32°20' W 010°02'1110.7
2017-Sep-15 00:56N 32°09' W 010°02'510.9
2017-Sep-15 00:30N 32°04' W 010°02'510.7
2017-Sep-15 00:00N 31°59' W 010°02'610.7
2017-Sep-14 23:29N 31°53' W 010°02'1110.6
2017-Sep-14 22:26N 31°42' W 010°03'510.7
2017-Sep-14 21:56N 31°37' W 010°03'510.2
2017-Sep-14 21:29N 31°32' W 010°03'510.5
2017-Sep-14 21:01N 31°27' W 010°03'510.1
2017-Sep-14 20:31N 31°22' W 010°03'1110.2
2017-Sep-14 19:28N 31°12' W 010°03'510.0
2017-Sep-14 19:00N 31°07' W 010°03'5 9.4
2017-Sep-14 18:30N 31°02' W 010°04'5 9.2
2017-Sep-14 18:00N 30°58' W 010°03'8 9.4
2017-Sep-14 17:07N 30°49' W 010°01'1 9.5
2017-Sep-14 17:00N 30°48' W 010°01'510.3
2017-Sep-14 16:30N 30°43' W 010°00'11 9.7
2017-Sep-14 15:20N 30°33' W 009°54'310.8
2017-Sep-14 15:00N 30°31' W 009°51'510.9
2017-Sep-14 14:31N 30°28' W 009°45'6 0.3
2017-Sep-13 15:48N 30°26' W 009°39'97 2.5
2017-Sep-12 00:05N 29°28' W 011°09'112.9
2017-Sep-12 00:00N 29°27' W 011°10'18511.8
2017-Sep-11 08:17N 27°30' W 013°54'  

Dump ship's entire track history